Time;durP1;ratioP1;P1;durP2;ratioP2;P2;SDS_P1;SDS_P2;PMS_P1;PMS_P2;Temp;Humidity;BMP_temperature;BMP_pressure;BME280_temperature;BME280_humidity;BME280_pressure;Samples;Min_cycle;Max_cycle;Signal;HPM_P1;HPM_P2
2022/08/28 00:00:51;;;;;;;11.77;2.90;;;15.70;99.90;;;;;;5101423;28;20048;-49
2022/08/28 00:03:17;;;;;;;10.85;3.10;;;15.60;99.90;;;;;;5100934;28;20040;-51
2022/08/28 00:05:43;;;;;;;10.32;3.05;;;15.70;99.90;;;;;;5099665;28;20443;-51
2022/08/28 00:08:11;;;;;;;13.70;3.75;;;15.70;99.90;;;;;;5100453;28;20046;-49
2022/08/28 00:10:40;;;;;;;14.02;2.90;;;15.70;99.90;;;;;;5099899;28;20128;-50
2022/08/28 00:13:08;;;;;;;13.15;2.90;;;15.70;99.90;;;;;;5100901;28;20038;-51
2022/08/28 00:15:36;;;;;;;9.88;2.83;;;15.80;99.90;;;;;;5099701;28;20078;-48
2022/08/28 00:18:04;;;;;;;11.10;2.60;;;15.70;99.90;;;;;;5087071;28;20145;-49
2022/08/28 00:20:31;;;;;;;11.27;3.00;;;15.70;99.90;;;;;;5079927;28;20048;-50
2022/08/28 00:22:59;;;;;;;9.95;3.20;;;15.70;99.90;;;;;;5080658;28;20036;-48
2022/08/28 00:25:27;;;;;;;7.95;2.50;;;15.70;99.90;;;;;;5079772;28;20048;-48
2022/08/28 00:27:56;;;;;;;8.20;2.72;;;15.60;99.90;;;;;;5080818;28;20044;-51
2022/08/28 00:30:24;;;;;;;10.00;2.92;;;15.60;99.90;;;;;;5080435;28;20087;-52
2022/08/28 00:32:52;;;;;;;10.27;2.67;;;15.60;99.90;;;;;;5080284;28;20052;-50
2022/08/28 00:35:18;;;;;;;8.30;2.40;;;15.60;99.90;;;;;;5080180;28;20040;-48
2022/08/28 00:37:45;;;;;;;9.48;2.63;;;15.60;99.90;;;;;;5084442;28;20050;-49
2022/08/28 00:40:14;;;;;;;12.02;2.72;;;15.50;99.90;;;;;;5100313;28;20036;-50
2022/08/28 00:42:41;;;;;;;10.73;3.03;;;15.50;99.90;;;;;;5099889;28;20424;-49
2022/08/28 00:45:08;;;;;;;9.30;2.30;;;15.50;99.90;;;;;;5100655;28;20470;-49
2022/08/28 00:47:35;;;;;;;11.60;2.40;;;15.50;99.90;;;;;;5098690;28;20054;-48
2022/08/28 00:50:02;;;;;;;7.20;2.10;;;15.50;99.90;;;;;;5100228;28;20096;-49
2022/08/28 00:52:28;;;;;;;13.15;2.75;;;15.50;99.90;;;;;;5100072;28;20511;-49
2022/08/28 00:55:00;;;;;;;10.80;2.83;;;15.40;99.90;;;;;;5099945;28;20051;-50
2022/08/28 00:57:39;;;;;;;11.40;2.45;;;15.50;99.90;;;;;;5100393;28;20048;-47
2022/08/28 01:00:15;;;;;;;11.05;2.45;;;15.30;99.90;;;;;;5099549;28;20064;-49
2022/08/28 01:02:41;;;;;;;8.73;2.50;;;15.40;99.90;;;;;;5099979;28;20419;-52
2022/08/28 01:05:08;;;;;;;10.38;2.53;;;15.30;99.90;;;;;;5100106;28;20051;-49
2022/08/28 01:07:38;;;;;;;10.95;2.55;;;15.20;99.90;;;;;;5098103;28;20044;-48
2022/08/28 01:10:07;;;;;;;8.93;2.60;;;15.30;99.90;;;;;;5099870;28;20102;-48
2022/08/28 01:12:33;;;;;;;11.77;2.65;;;15.20;99.90;;;;;;5099143;28;20047;-49
2022/08/28 01:15:08;;;;;;;8.07;2.53;;;15.20;99.90;;;;;;5100157;28;20093;-48
2022/08/28 01:17:35;;;;;;;8.95;2.33;;;15.10;99.90;;;;;;5089485;28;20055;-50
2022/08/28 01:20:08;;;;;;;9.63;2.50;;;15.20;99.90;;;;;;5079202;28;20049;-50
2022/08/28 01:22:43;;;;;;;6.88;2.58;;;15.30;99.90;;;;;;5079568;28;20044;-50
2022/08/28 01:25:12;;;;;;;11.63;2.33;;;15.20;99.90;;;;;;5078661;28;20083;-48
2022/08/28 01:27:40;;;;;;;7.53;2.05;;;15.10;99.90;;;;;;5079576;28;20067;-48
2022/08/28 01:30:11;;;;;;;13.40;3.00;;;15.20;99.90;;;;;;5079043;28;20177;-48
2022/08/28 01:32:44;;;;;;;12.05;2.72;;;15.10;99.90;;;;;;5079561;28;20036;-50
2022/08/28 01:35:13;;;;;;;9.93;2.70;;;15.10;99.90;;;;;;5079222;28;20044;-50
2022/08/28 01:37:40;;;;;;;11.77;2.63;;;15.10;99.90;;;;;;5082250;28;20036;-51
2022/08/28 01:40:08;;;;;;;11.60;2.42;;;15.20;99.90;;;;;;5099433;28;20046;-49
2022/08/28 01:42:39;;;;;;;9.00;2.28;;;15.10;99.90;;;;;;5098575;28;20091;-50
2022/08/28 01:45:10;;;;;;;11.15;2.40;;;15.20;99.90;;;;;;5090173;28;20036;-49
2022/08/28 01:47:37;;;;;;;11.10;3.17;;;15.20;99.90;;;;;;5078792;28;20115;-48
2022/08/28 01:50:05;;;;;;;8.43;1.98;;;15.20;99.90;;;;;;5077186;28;20045;-51
2022/08/28 01:52:31;;;;;;;8.65;2.15;;;15.20;99.90;;;;;;5077948;28;20556;-52
2022/08/28 01:54:57;;;;;;;7.25;2.22;;;15.20;99.90;;;;;;5078290;28;20067;-49
2022/08/28 01:57:23;;;;;;;7.90;2.28;;;15.20;99.90;;;;;;5078513;28;20071;-47
2022/08/28 01:59:49;;;;;;;10.93;2.10;;;15.20;99.90;;;;;;5078276;28;20037;-51
2022/08/28 02:02:15;;;;;;;10.13;2.28;;;15.20;99.90;;;;;;5077843;28;20075;-48
2022/08/28 02:04:41;;;;;;;8.98;2.40;;;15.30;99.90;;;;;;5078528;28;20407;-49
2022/08/28 02:07:07;;;;;;;7.72;1.90;;;15.20;99.90;;;;;;5077042;28;20092;-49
2022/08/28 02:09:33;;;;;;;11.20;2.20;;;15.20;99.90;;;;;;5078415;28;20037;-52
2022/08/28 02:11:59;;;;;;;8.13;2.03;;;15.20;99.90;;;;;;5077673;28;20588;-50
2022/08/28 02:14:25;;;;;;;8.77;1.88;;;15.20;99.90;;;;;;5078200;28;20051;-49
2022/08/28 02:16:50;;;;;;;10.70;2.28;;;15.20;99.90;;;;;;5081442;28;20078;-48
2022/08/28 02:19:16;;;;;;;9.18;2.78;;;15.10;99.90;;;;;;5098825;28;20054;-49
2022/08/28 02:21:42;;;;;;;9.35;2.10;;;15.20;99.90;;;;;;5098332;28;20625;-48
2022/08/28 02:24:08;;;;;;;8.93;2.00;;;15.10;99.90;;;;;;5098636;28;20048;-50
2022/08/28 02:26:33;;;;;;;8.90;2.35;;;15.10;99.90;;;;;;5098631;28;20044;-51
2022/08/28 02:28:59;;;;;;;15.70;2.30;;;15.00;99.90;;;;;;5098095;28;20036;-48
2022/08/28 02:31:26;;;;;;;7.43;1.92;;;14.90;99.90;;;;;;5098450;28;20040;-49
2022/08/28 02:33:52;;;;;;;9.68;2.00;;;14.80;99.90;;;;;;5097841;28;20054;-52
2022/08/28 02:36:17;;;;;;;7.22;1.90;;;14.80;99.90;;;;;;5098909;28;20107;-51
2022/08/28 02:38:45;;;;;;;5.65;1.70;;;14.70;99.90;;;;;;5096386;28;20080;-48
2022/08/28 02:41:12;;;;;;;9.48;2.13;;;14.70;99.90;;;;;;5098425;28;20051;-49
2022/08/28 02:43:38;;;;;;;9.18;2.22;;;14.70;99.90;;;;;;5098291;28;20040;-48
2022/08/28 02:46:05;;;;;;;12.25;2.25;;;14.60;99.90;;;;;;5098026;28;20036;-48
2022/08/28 02:48:32;;;;;;;7.72;1.92;;;14.60;99.90;;;;;;5098122;28;20082;-49
2022/08/28 02:51:01;;;;;;;10.43;2.00;;;14.70;99.90;;;;;;5097568;28;20040;-48
2022/08/28 02:53:28;;;;;;;8.38;2.28;;;14.80;99.90;;;;;;5098154;28;20502;-49
2022/08/28 02:55:55;;;;;;;8.68;3.03;;;14.80;99.90;;;;;;5097917;28;20047;-50
2022/08/28 02:58:20;;;;;;;7.63;2.35;;;14.70;99.90;;;;;;5097981;28;20075;-51
2022/08/28 03:00:46;;;;;;;9.77;2.50;;;14.70;99.90;;;;;;5098119;28;20040;-48
2022/08/28 03:03:12;;;;;;;6.78;2.10;;;14.70;99.90;;;;;;5097382;28;20044;-49
2022/08/28 03:05:38;;;;;;;6.88;1.88;;;14.60;99.90;;;;;;5098198;28;20125;-51
2022/08/28 03:08:04;;;;;;;10.25;2.30;;;14.60;99.90;;;;;;5095872;28;20050;-50
2022/08/28 03:10:30;;;;;;;8.60;2.00;;;14.70;99.90;;;;;;5096547;28;20127;-49
2022/08/28 03:12:55;;;;;;;8.88;1.77;;;14.70;99.90;;;;;;5097414;28;20043;-48
2022/08/28 03:15:21;;;;;;;7.05;2.05;;;14.70;99.90;;;;;;5098118;28;20054;-48
2022/08/28 03:17:47;;;;;;;8.68;2.20;;;14.70;99.90;;;;;;5086027;28;20460;-50
2022/08/28 03:20:14;;;;;;;8.18;2.22;;;14.70;99.90;;;;;;5077289;28;20032;-52
2022/08/28 03:25:24;;;;;;;8.30;2.35;;;14.80;99.90;;;;;;5080039;28;20063;-49
2022/08/28 03:27:51;;;;;;;7.47;1.60;;;14.80;99.90;;;;;;5081977;28;20051;-51
2022/08/28 03:30:18;;;;;;;8.70;1.98;;;14.80;99.90;;;;;;5081380;28;20172;-49
2022/08/28 03:32:44;;;;;;;8.30;2.42;;;14.90;99.90;;;;;;5081358;28;20044;-48
2022/08/28 03:35:10;;;;;;;9.35;1.98;;;14.90;99.90;;;;;;5081648;28;20080;-48
2022/08/28 03:37:36;;;;;;;9.20;2.05;;;15.00;99.90;;;;;;5084338;28;20051;-50
2022/08/28 03:40:03;;;;;;;9.38;2.22;;;15.10;99.90;;;;;;5101542;28;20895;-49
2022/08/28 03:42:30;;;;;;;11.43;2.35;;;15.00;99.90;;;;;;5101127;28;20039;-51
2022/08/28 03:44:56;;;;;;;11.82;2.72;;;15.00;99.90;;;;;;5101858;28;20051;-51
2022/08/28 03:47:23;;;;;;;9.63;1.88;;;15.10;99.90;;;;;;5101229;28;20044;-50
2022/08/28 03:49:54;;;;;;;10.23;2.60;;;15.00;99.90;;;;;;5099996;28;20097;-51
2022/08/28 03:52:20;;;;;;;8.88;2.13;;;15.10;99.90;;;;;;5101643;28;20095;-49
2022/08/28 03:54:46;;;;;;;11.45;2.78;;;15.10;99.90;;;;;;5101039;28;20048;-51
2022/08/28 03:57:19;;;;;;;8.23;2.20;;;15.10;99.90;;;;;;5101355;28;20062;-48
2022/08/28 03:59:50;;;;;;;7.80;2.05;;;15.10;99.90;;;;;;5099489;28;20056;-50
2022/08/28 04:02:19;;;;;;;9.97;2.73;;;15.10;99.90;;;;;;5101461;28;20119;-49
2022/08/28 04:04:49;;;;;;;9.65;2.28;;;15.10;99.90;;;;;;5101382;28;20370;-49
2022/08/28 04:07:15;;;;;;;11.40;2.22;;;15.10;99.90;;;;;;5100994;28;20036;-49
2022/08/28 04:09:41;;;;;;;8.93;2.17;;;15.00;99.90;;;;;;5100962;28;20067;-48
2022/08/28 04:12:08;;;;;;;5.43;1.73;;;15.00;99.90;;;;;;5099105;28;20227;-50
2022/08/28 04:14:34;;;;;;;9.93;2.22;;;14.90;99.90;;;;;;5101335;28;20048;-48
2022/08/28 04:16:59;;;;;;;10.35;2.15;;;14.90;99.90;;;;;;5095282;28;20047;-48
2022/08/28 04:19:25;;;;;;;9.63;1.80;;;14.80;99.90;;;;;;5080919;28;20052;-48
2022/08/28 04:21:51;;;;;;;9.07;2.17;;;14.90;99.90;;;;;;5078425;28;20052;-48
2022/08/28 04:24:17;;;;;;;8.77;1.90;;;15.00;99.90;;;;;;5080189;28;20041;-51
2022/08/28 04:26:42;;;;;;;9.25;2.30;;;14.80;99.90;;;;;;5080821;28;20049;-49
2022/08/28 04:29:08;;;;;;;9.40;1.98;;;14.90;99.90;;;;;;5080064;28;20037;-48
2022/08/28 04:31:34;;;;;;;7.88;1.95;;;14.80;99.90;;;;;;5079289;28;20101;-49
2022/08/28 04:34:03;;;;;;;9.63;2.42;;;14.80;99.90;;;;;;5079933;28;20048;-50
2022/08/28 04:36:29;;;;;;;10.48;2.58;;;14.80;99.90;;;;;;5079824;28;20070;-49
2022/08/28 04:38:56;;;;;;;6.93;1.90;;;14.80;99.90;;;;;;5094317;28;20065;-49
2022/08/28 04:41:22;;;;;;;10.70;2.28;;;14.80;99.90;;;;;;5099188;28;20047;-49
2022/08/28 04:43:48;;;;;;;7.20;2.50;;;14.80;99.90;;;;;;5100687;28;20047;-48
2022/08/28 04:46:14;;;;;;;9.30;1.90;;;14.90;99.90;;;;;;5098956;28;20056;-51
2022/08/28 04:48:41;;;;;;;7.72;1.63;;;14.90;99.90;;;;;;5100419;28;20044;-49
2022/08/28 04:51:08;;;;;;;7.97;2.00;;;14.90;99.90;;;;;;5099929;28;20063;-49
2022/08/28 04:53:35;;;;;;;9.05;1.92;;;15.00;99.90;;;;;;5100401;28;20420;-51
2022/08/28 04:56:03;;;;;;;8.57;2.13;;;15.00;99.90;;;;;;5100241;28;20077;-48
2022/08/28 04:58:29;;;;;;;10.13;1.60;;;15.00;99.90;;;;;;5099907;28;20063;-49
2022/08/28 05:00:55;;;;;;;9.95;2.05;;;15.00;99.90;;;;;;5100393;28;20455;-50
2022/08/28 05:03:22;;;;;;;9.57;1.88;;;15.10;99.90;;;;;;5098559;28;20048;-51
2022/08/28 05:05:51;;;;;;;8.43;1.85;;;15.20;99.90;;;;;;5100189;28;20056;-51
2022/08/28 05:08:19;;;;;;;7.53;2.00;;;15.30;99.90;;;;;;5099295;28;20523;-50
2022/08/28 05:10:45;;;;;;;9.00;1.90;;;15.40;99.90;;;;;;5099925;28;20719;-49
2022/08/28 05:13:14;;;;;;;8.52;1.73;;;15.50;99.90;;;;;;5099897;28;20115;-49
2022/08/28 05:15:46;;;;;;;8.40;2.63;;;15.50;99.90;;;;;;5099917;28;20051;-52
2022/08/28 05:18:13;;;;;;;10.43;1.90;;;15.60;99.90;;;;;;5084529;28;20055;-55
2022/08/28 05:20:41;;;;;;;7.90;2.00;;;15.70;99.90;;;;;;5078749;28;20078;-52
2022/08/28 05:23:08;;;;;;;10.95;1.92;;;15.80;99.90;;;;;;5079800;28;20171;-49
2022/08/28 05:25:39;;;;;;;9.05;2.10;;;16.00;99.90;;;;;;5079012;28;20091;-49
2022/08/28 05:28:08;;;;;;;8.17;1.57;;;16.10;99.90;;;;;;5079707;28;20045;-50
2022/08/28 05:30:38;;;;;;;10.18;1.60;;;16.20;99.90;;;;;;5079475;28;20063;-52
2022/08/28 05:33:06;;;;;;;9.10;1.70;;;16.20;99.90;;;;;;5078886;28;20075;-51
2022/08/28 05:35:33;;;;;;;7.15;1.50;;;16.30;99.90;;;;;;5077950;28;20083;-49
2022/08/28 05:37:59;;;;;;;7.78;1.73;;;16.30;99.90;;;;;;5085196;28;20048;-52
2022/08/28 05:40:25;;;;;;;7.20;1.67;;;16.30;99.90;;;;;;5098033;28;20075;-49
2022/08/28 05:42:51;;;;;;;8.35;1.80;;;16.30;99.90;;;;;;5098940;28;20059;-51
2022/08/28 05:45:17;;;;;;;6.55;1.90;;;16.20;99.90;;;;;;5099441;28;20039;-49
2022/08/28 05:47:43;;;;;;;9.85;1.90;;;16.30;99.90;;;;;;5099063;28;20056;-51
2022/08/28 05:50:13;;;;;;;13.20;1.77;;;16.20;99.90;;;;;;5098673;28;20040;-49
2022/08/28 05:52:41;;;;;;;11.68;2.08;;;16.20;99.90;;;;;;5098814;28;20937;-49
2022/08/28 05:55:09;;;;;;;10.48;1.83;;;16.10;99.90;;;;;;5098361;28;20052;-49
2022/08/28 05:57:35;;;;;;;8.25;1.67;;;16.00;99.90;;;;;;5099417;28;20044;-50
2022/08/28 06:00:02;;;;;;;6.53;1.65;;;16.10;99.90;;;;;;5098618;28;20059;-50
2022/08/28 06:02:28;;;;;;;7.63;1.90;;;16.10;99.90;;;;;;5096202;28;20039;-52
2022/08/28 06:04:54;;;;;;;6.95;1.80;;;16.10;99.90;;;;;;5095967;28;20078;-52
2022/08/28 06:07:19;;;;;;;6.40;1.55;;;16.20;99.90;;;;;;5095533;28;20056;-49
2022/08/28 06:09:45;;;;;;;10.23;1.88;;;16.30;99.90;;;;;;5095519;28;20056;-49
2022/08/28 06:12:11;;;;;;;7.43;1.70;;;16.30;99.90;;;;;;5094908;28;20126;-49
2022/08/28 06:14:37;;;;;;;6.97;1.60;;;16.40;99.90;;;;;;5095362;28;20040;-51
2022/08/28 06:17:03;;;;;;;9.40;2.65;;;16.50;99.90;;;;;;5089148;28;20044;-49
2022/08/28 06:19:32;;;;;;;7.55;1.60;;;16.60;99.90;;;;;;5075340;28;20102;-50
2022/08/28 06:22:01;;;;;;;7.18;1.65;;;16.70;99.90;;;;;;5075277;28;20048;-54
2022/08/28 06:24:29;;;;;;;8.93;1.85;;;16.80;99.90;;;;;;5074496;28;20096;-48
2022/08/28 06:26:55;;;;;;;9.25;1.73;;;16.90;99.90;;;;;;5074710;28;20044;-50
2022/08/28 06:29:21;;;;;;;8.68;1.80;;;17.00;99.90;;;;;;5074195;28;20127;-51
2022/08/28 06:31:58;;;;;;;7.90;2.05;;;17.10;99.90;;;;;;5075524;28;20057;-51
2022/08/28 06:34:24;;;;;;;6.65;1.55;;;17.10;99.90;;;;;;5073542;28;20047;-48
2022/08/28 06:36:50;;;;;;;7.95;1.80;;;17.20;99.90;;;;;;5075040;28;20050;-51
2022/08/28 06:39:15;;;;;;;7.20;1.55;;;17.20;99.90;;;;;;5091711;28;20035;-52
2022/08/28 06:41:42;;;;;;;8.65;1.40;;;17.20;99.90;;;;;;5094693;28;20123;-51
2022/08/28 06:44:10;;;;;;;6.60;1.60;;;17.30;99.90;;;;;;5093670;28;20055;-51
2022/08/28 06:46:35;;;;;;;6.57;1.98;;;17.40;99.90;;;;;;5092924;28;20068;-52
2022/08/28 06:49:03;;;;;;;7.30;1.80;;;17.50;99.90;;;;;;5095378;28;20548;-50
2022/08/28 06:51:29;;;;;;;5.70;1.60;;;17.50;99.90;;;;;;5094254;28;20072;-52
2022/08/28 06:53:56;;;;;;;7.55;1.40;;;17.50;99.90;;;;;;5094728;28;20078;-49
2022/08/28 06:56:22;;;;;;;6.32;1.85;;;17.60;99.90;;;;;;5094917;28;20105;-53
2022/08/28 06:58:48;;;;;;;7.40;1.70;;;17.60;99.90;;;;;;5094070;28;20071;-49
2022/08/28 07:01:21;;;;;;;5.25;1.40;;;17.60;99.90;;;;;;5094882;28;20044;-49
2022/08/28 07:03:48;;;;;;;5.25;1.83;;;17.70;99.90;;;;;;5093681;28;20048;-49
2022/08/28 07:06:15;;;;;;;8.18;2.00;;;17.70;99.90;;;;;;5093570;28;20056;-50
2022/08/28 07:08:42;;;;;;;6.85;1.77;;;17.80;99.90;;;;;;5094075;28;20579;-50
2022/08/28 07:11:20;;;;;;;4.60;1.27;;;17.80;99.90;;;;;;5094514;28;20040;-49
2022/08/28 07:13:47;;;;;;;6.32;1.38;;;17.80;99.90;;;;;;5094315;28;20076;-52
2022/08/28 07:16:15;;;;;;;6.63;1.40;;;17.80;99.90;;;;;;5093906;28;20055;-53
2022/08/28 07:18:41;;;;;;;7.25;1.50;;;18.00;99.90;;;;;;5074928;28;20062;-51
2022/08/28 07:21:06;;;;;;;7.10;1.70;;;18.10;99.90;;;;;;5073708;28;20040;-47
2022/08/28 07:23:34;;;;;;;8.95;2.00;;;18.10;99.90;;;;;;5074725;28;20045;-51
2022/08/28 07:26:03;;;;;;;6.28;1.58;;;18.20;99.90;;;;;;5074038;28;20115;-51
2022/08/28 07:28:29;;;;;;;5.97;2.10;;;18.30;99.90;;;;;;5074141;28;20048;-49
2022/08/28 07:30:57;;;;;;;7.15;1.95;;;18.30;99.90;;;;;;5074471;28;20077;-48
2022/08/28 07:33:24;;;;;;;5.90;1.40;;;18.30;99.90;;;;;;5073906;28;20045;-50
2022/08/28 07:35:49;;;;;;;5.10;1.75;;;18.30;99.90;;;;;;5074688;28;20036;-49
2022/08/28 07:38:16;;;;;;;7.95;1.88;;;18.40;99.90;;;;;;5082063;28;20048;-48
2022/08/28 07:40:41;;;;;;;6.88;1.45;;;18.50;99.90;;;;;;5094599;28;20055;-50
2022/08/28 07:46:05;;;;;;;8.10;1.92;;;18.60;99.90;;;;;;5094000;28;20050;-49
2022/08/28 07:48:34;;;;;;;7.93;1.65;;;18.70;99.90;;;;;;5094078;28;20052;-50
2022/08/28 07:51:03;;;;;;;8.07;2.05;;;18.70;99.90;;;;;;5093255;28;20040;-52
2022/08/28 07:53:29;;;;;;;8.40;2.05;;;18.80;99.90;;;;;;5092833;28;20052;-51
2022/08/28 07:55:54;;;;;;;9.05;2.03;;;18.90;99.90;;;;;;5094140;28;20086;-48
2022/08/28 07:58:21;;;;;;;8.13;1.70;;;18.80;99.90;;;;;;5089203;28;20924;-51
2022/08/28 08:00:46;;;;;;;8.00;2.15;;;18.90;99.90;;;;;;5075337;28;20049;-51
2022/08/28 08:03:13;;;;;;;10.63;1.92;;;18.80;99.90;;;;;;5073120;28;20045;-49
2022/08/28 08:05:40;;;;;;;8.82;1.90;;;18.70;99.90;;;;;;5074042;28;20092;-51
2022/08/28 08:08:06;;;;;;;8.35;2.08;;;18.50;99.90;;;;;;5073297;28;20044;-47
2022/08/28 08:10:32;;;;;;;8.20;1.95;;;18.60;99.90;;;;;;5074318;28;20565;-50
2022/08/28 08:12:57;;;;;;;5.80;1.65;;;18.80;99.90;;;;;;5077510;28;20037;-50
2022/08/28 08:15:23;;;;;;;8.20;1.80;;;18.60;99.90;;;;;;5077229;28;20097;-51
2022/08/28 08:17:49;;;;;;;6.82;1.92;;;18.50;99.90;;;;;;5089489;28;20620;-49
2022/08/28 08:20:14;;;;;;;8.27;1.92;;;18.50;99.90;;;;;;5097380;28;20135;-48
2022/08/28 08:22:40;;;;;;;8.02;1.80;;;18.90;99.90;;;;;;5096784;28;20050;-49
2022/08/28 08:25:06;;;;;;;8.57;2.30;;;19.10;99.90;;;;;;5080775;28;20055;-52
2022/08/28 08:27:34;;;;;;;8.10;2.00;;;18.90;99.90;;;;;;5077432;28;20068;-50
2022/08/28 08:30:01;;;;;;;10.35;2.53;;;18.60;99.90;;;;;;5076924;28;20531;-48
2022/08/28 08:32:26;;;;;;;7.68;2.63;;;18.70;99.90;;;;;;5077075;28;20994;-49
2022/08/28 08:34:57;;;;;;;6.72;1.88;;;18.90;99.90;;;;;;5075868;28;20040;-49
2022/08/28 08:37:23;;;;;;;9.20;1.80;;;19.00;99.90;;;;;;5078319;28;20063;-50
2022/08/28 08:39:49;;;;;;;9.18;1.95;;;19.30;99.90;;;;;;5096946;28;20067;-51
2022/08/28 08:42:20;;;;;;;7.93;2.30;;;19.50;99.90;;;;;;5096551;28;20078;-49
2022/08/28 08:44:48;;;;;;;7.85;2.25;;;19.40;99.90;;;;;;5097488;28;20051;-50
2022/08/28 08:47:23;;;;;;;6.07;1.75;;;19.50;99.90;;;;;;5083653;28;20064;-50
2022/08/28 08:49:51;;;;;;;7.45;1.98;;;19.60;99.90;;;;;;5076319;28;20157;-49
2022/08/28 08:52:27;;;;;;;8.40;1.98;;;19.50;99.90;;;;;;5077051;28;20055;-49
2022/08/28 08:55:09;;;;;;;9.65;1.90;;;19.70;99.90;;;;;;5076288;28;20108;-49
2022/08/28 08:57:37;;;;;;;8.98;1.95;;;19.70;99.90;;;;;;5077049;28;20056;-51
2022/08/28 09:00:08;;;;;;;6.68;1.98;;;19.90;99.90;;;;;;5076762;28;20040;-47
2022/08/28 09:02:42;;;;;;;7.97;2.10;;;19.70;99.90;;;;;;5076374;28;20040;-51
2022/08/28 09:05:15;;;;;;;8.68;2.08;;;19.80;99.90;;;;;;5076864;28;20101;-49
2022/08/28 09:07:55;;;;;;;8.52;2.03;;;19.80;99.90;;;;;;5075926;28;20045;-51
2022/08/28 09:10:22;;;;;;;5.57;1.70;;;19.90;99.90;;;;;;5076766;28;20053;-53
2022/08/28 09:13:03;;;;;;;7.82;1.95;;;19.80;99.90;;;;;;5076257;28;20495;-52
2022/08/28 09:15:32;;;;;;;9.23;1.70;;;19.70;99.90;;;;;;5075969;28;20068;-52
2022/08/28 09:18:23;;;;;;;7.38;1.85;;;19.90;99.90;;;;;;5089796;28;20092;-51
2022/08/28 09:20:55;;;;;;;7.68;2.13;;;19.90;99.90;;;;;;5096048;28;20044;-51
2022/08/28 09:23:22;;;;;;;;;;;20.10;99.90;;;;;;5097013;28;20051;-49
2022/08/28 09:25:52;;;;;;;9.73;1.90;;;20.00;99.90;;;;;;5095832;28;20374;-48
2022/08/28 09:28:26;;;;;;;8.68;1.95;;;19.80;99.90;;;;;;5096591;28;20044;-49
2022/08/28 09:31:05;;;;;;;9.50;2.13;;;19.80;99.90;;;;;;5096474;28;20128;-47
2022/08/28 09:33:50;;;;;;;8.18;1.98;;;20.00;99.90;;;;;;5095614;28;20048;-47
2022/08/28 09:36:35;;;;;;;7.55;1.70;;;20.20;99.90;;;;;;5095836;28;20058;-47
2022/08/28 09:39:03;;;;;;;8.60;1.83;;;19.90;99.90;;;;;;5095433;28;20052;-50
2022/08/28 09:44:14;;;;;;;8.95;1.77;;;20.00;99.90;;;;;;5096081;28;20051;-52
2022/08/28 09:46:49;;;;;;;8.50;1.70;;;19.90;99.90;;;;;;5095264;28;20056;-52
2022/08/28 09:49:26;;;;;;;9.23;1.88;;;19.80;99.90;;;;;;5096176;28;20075;-47
2022/08/28 09:51:53;;;;;;;9.18;2.00;;;20.00;99.90;;;;;;5095348;28;20048;-52
2022/08/28 09:54:25;;;;;;;7.88;1.90;;;19.80;99.90;;;;;;5095620;28;20121;-52
2022/08/28 09:56:51;;;;;;;7.70;1.75;;;19.70;99.90;;;;;;5095579;28;20063;-49
2022/08/28 09:59:20;;;;;;;8.38;1.92;;;19.70;99.90;;;;;;5094405;28;20056;-52
2022/08/28 10:01:53;;;;;;;7.85;1.95;;;19.30;99.90;;;;;;5095371;28;20056;-52
2022/08/28 10:04:41;;;;;;;7.65;1.95;;;19.20;99.90;;;;;;5095363;28;20544;-49
2022/08/28 10:07:29;;;;;;;7.68;1.98;;;19.20;99.90;;;;;;5094965;28;20550;-53
2022/08/28 10:10:16;;;;;;;7.85;2.75;;;19.70;99.90;;;;;;5093763;28;20040;-49
2022/08/28 10:13:09;;;;;;;5.80;1.80;;;19.80;99.90;;;;;;5095119;28;20036;-47
2022/08/28 10:15:53;;;;;;;8.85;1.98;;;19.80;99.90;;;;;;5094904;28;20062;-48
2022/08/28 10:18:53;;;;;;;8.20;1.88;;;20.10;99.90;;;;;;5078840;28;20068;-48
2022/08/28 10:21:31;;;;;;;7.05;1.98;;;20.20;99.90;;;;;;5066915;28;20118;-49
2022/08/28 10:24:29;;;;;;;8.00;1.77;;;20.40;99.90;;;;;;5075176;28;20058;-51
2022/08/28 10:27:24;;;;;;;9.00;2.42;;;20.40;99.90;;;;;;5068381;28;20052;-48
2022/08/28 10:30:22;;;;;;;6.78;1.98;;;20.10;99.90;;;;;;5074604;28;20102;-51
2022/08/28 10:33:10;;;;;;;10.02;2.50;;;20.20;99.90;;;;;;5074845;28;20087;-51
2022/08/28 10:35:54;;;;;;;7.97;1.90;;;20.50;99.90;;;;;;5078060;28;20076;-50
2022/08/28 10:38:42;;;;;;;7.95;2.10;;;20.60;99.90;;;;;;5087400;28;20137;-49
2022/08/28 10:41:23;;;;;;;8.15;2.08;;;20.50;99.90;;;;;;5098292;28;20048;-49
2022/08/28 10:43:53;;;;;;;8.02;1.80;;;20.20;99.90;;;;;;5090821;28;20079;-53
2022/08/28 10:46:35;;;;;;;5.97;1.90;;;20.20;99.90;;;;;;5093660;28;20044;-54
2022/08/28 10:49:09;;;;;;;7.68;1.70;;;20.30;99.90;;;;;;5088771;28;20047;-50
2022/08/28 10:51:46;;;;;;;6.03;1.67;;;20.30;99.90;;;;;;5086893;28;20036;-49
2022/08/28 10:54:18;;;;;;;8.55;2.00;;;20.40;99.90;;;;;;5097515;28;20073;-50
2022/08/28 10:56:52;;;;;;;7.32;1.83;;;20.30;99.70;;;;;;5098312;28;20056;-50
2022/08/28 10:59:18;;;;;;;9.15;1.85;;;20.50;99.50;;;;;;5096016;28;20075;-50
2022/08/28 11:01:45;;;;;;;5.43;1.70;;;20.50;99.90;;;;;;5096311;28;20078;-50
2022/08/28 11:04:22;;;;;;;7.90;1.73;;;20.50;99.80;;;;;;5086889;28;20040;-50
2022/08/28 11:07:06;;;;;;;7.20;1.88;;;20.20;99.00;;;;;;5081356;28;20546;-50
2022/08/28 11:09:38;;;;;;;7.40;1.90;;;20.20;98.90;;;;;;5077546;28;20051;-51
2022/08/28 11:12:36;;;;;;;9.85;2.10;;;20.30;98.90;;;;;;5077129;28;20044;-49
2022/08/28 11:15:27;;;;;;;9.27;1.88;;;20.20;99.10;;;;;;5074611;28;20061;-51
2022/08/28 11:17:55;;;;;;;7.55;1.98;;;20.00;99.70;;;;;;5090143;28;20078;-52
2022/08/28 11:20:28;;;;;;;6.43;1.50;;;20.00;99.90;;;;;;5096838;28;20040;-52
2022/08/28 11:22:54;;;;;;;8.38;2.15;;;20.10;99.90;;;;;;5097746;28;20055;-49
2022/08/28 11:25:24;;;;;;;7.50;1.83;;;20.40;99.90;;;;;;5097163;28;20044;-50
2022/08/28 11:28:34;;;;;;;10.48;1.77;;;20.60;99.90;;;;;;5097957;28;20047;-52
2022/08/28 11:31:00;;;;;;;5.50;1.63;;;20.60;99.80;;;;;;5054633;28;20045;-49
2022/08/28 11:33:49;;;;;;;7.72;1.63;;;20.50;99.90;;;;;;5090765;28;20095;-52
2022/08/28 11:36:18;;;;;;;7.85;1.88;;;20.50;99.40;;;;;;5098040;28;20062;-51
2022/08/28 11:38:43;;;;;;;7.15;1.98;;;20.60;99.50;;;;;;5096816;28;20044;-49
2022/08/28 11:41:11;;;;;;;6.50;1.77;;;20.60;99.90;;;;;;5096019;28;20052;-51
2022/08/28 11:43:39;;;;;;;9.55;1.90;;;20.80;99.20;;;;;;5097794;28;20052;-53
2022/08/28 11:46:14;;;;;;;6.43;1.67;;;20.80;99.20;;;;;;5099669;28;20475;-52
2022/08/28 11:48:47;;;;;;;6.75;1.83;;;20.70;98.90;;;;;;5101740;28;20094;-50
2022/08/28 11:51:16;;;;;;;5.63;1.63;;;21.10;98.90;;;;;;5100945;28;20039;-49
2022/08/28 11:53:57;;;;;;;11.18;1.85;;;20.80;98.70;;;;;;5101315;28;20067;-49
2022/08/28 11:57:07;;;;;;;7.93;1.70;;;20.70;98.50;;;;;;5101251;28;20056;-53
2022/08/28 11:59:50;;;;;;;6.90;1.65;;;20.60;99.40;;;;;;5091549;28;20404;-49
2022/08/28 12:02:34;;;;;;;6.68;1.60;;;20.40;99.30;;;;;;5099378;28;20104;-50
2022/08/28 12:05:01;;;;;;;7.95;1.55;;;20.50;99.30;;;;;;5101060;28;20074;-51
2022/08/28 12:07:35;;;;;;;6.82;1.40;;;20.40;99.80;;;;;;5100411;28;20118;-51
2022/08/28 12:10:01;;;;;;;6.32;1.50;;;20.30;99.60;;;;;;5101206;28;20036;-50
2022/08/28 12:12:44;;;;;;;5.93;1.70;;;20.10;99.80;;;;;;5099731;28;20409;-47
2022/08/28 12:15:30;;;;;;;6.05;1.88;;;20.40;99.90;;;;;;5096062;28;20506;-50
2022/08/28 12:18:02;;;;;;;6.07;1.70;;;20.60;99.90;;;;;;5083809;28;20048;-48
2022/08/28 12:20:33;;;;;;;6.43;1.77;;;20.80;99.90;;;;;;5076964;28;20075;-49
2022/08/28 12:23:22;;;;;;;8.70;1.83;;;20.70;99.90;;;;;;5077743;28;20052;-49
2022/08/28 12:25:48;;;;;;;15.88;2.92;;;20.90;99.80;;;;;;5068711;28;20059;-48
2022/08/28 12:28:20;;;;;;;6.13;1.88;;;20.70;99.90;;;;;;5077029;28;20048;-52
2022/08/28 12:30:56;;;;;;;;;;;20.70;99.90;;;;;;5077677;28;20045;-52
2022/08/28 12:33:40;;;;;;;6.88;1.60;;;20.70;99.90;;;;;;5076085;28;19947;-51
2022/08/28 12:36:13;;;;;;;5.78;1.70;;;20.70;99.90;;;;;;5077053;28;20210;-51
2022/08/28 12:38:39;;;;;;;8.48;1.85;;;20.70;99.90;;;;;;5088335;28;20044;-51
2022/08/28 12:41:15;;;;;;;9.85;2.03;;;20.30;99.90;;;;;;5097001;28;20036;-52
2022/08/28 12:43:45;;;;;;;6.43;1.75;;;20.40;99.90;;;;;;5096982;28;20479;-51
2022/08/28 12:46:16;;;;;;;7.47;2.38;;;20.50;99.90;;;;;;5096243;28;20124;-49
2022/08/28 12:49:25;;;;;;;5.30;1.40;;;20.40;99.90;;;;;;5097145;28;20516;-52
2022/08/28 12:52:07;;;;;;;7.57;1.73;;;20.60;99.90;;;;;;5093959;28;20063;-49
2022/08/28 12:54:34;;;;;;;;;;;20.50;99.90;;;;;;5097104;28;20051;-52
2022/08/28 12:57:04;;;;;;;5.38;1.42;;;20.40;99.90;;;;;;5096418;28;19924;-49
2022/08/28 12:59:40;;;;;;;5.97;1.40;;;20.40;99.90;;;;;;5096191;28;20062;-49
2022/08/28 13:02:16;;;;;;;5.63;1.67;;;20.40;99.90;;;;;;5096728;28;20625;-49
2022/08/28 13:04:54;;;;;;;5.53;1.40;;;20.40;99.90;;;;;;5096919;28;20070;-50
2022/08/28 13:07:26;;;;;;;6.65;1.30;;;20.60;99.90;;;;;;5096108;28;20109;-51
2022/08/28 13:09:54;;;;;;;5.28;1.20;;;20.60;99.90;;;;;;5096992;28;20105;-51